Fawn Grove, Pennsylvania
Current Conditions -  °F | °C
As of 8:53 AM on Thursday 23 Oct 2014 (Local Time) from KTHV Reporting Station
Overcast Overcast  
Wind Chill: 53°   Ceiling: 3100
Heat Index: 53°   Visibility: 10mi
Dew Point: 43°   Wind: 14mph
Humidity: 69%   Direction: 310°NW
Pressure: 29.88"   Gusts: 25mph
Location:  39.73°N, 76.45°W
Report Text: KTHV 231253Z AUTO 31012G22KT 10SM OVC031 12/06 A2988 RMK AO2 SLP120 T01170061
Loading
Personal Weather Stations






























Interactive Weather Map
Tropical Storm Tracking
New forecast layout! Learn more

10-Day Weather Forecast

Advertisements
Track Severe Weather on mobile